sensor_id;sensor_type;location;lat;lon;timestamp;P1;durP1;ratioP1;P2;durP2;ratioP2
38725;SDS011;24474;48.906;8.808;2022-08-03T00:00:46;1.80;;;1.40;;
38725;SDS011;24474;48.906;8.808;2022-08-03T00:03:13;2.47;;;1.55;;
38725;SDS011;24474;48.906;8.808;2022-08-03T00:05:39;2.97;;;1.58;;
38725;SDS011;24474;48.906;8.808;2022-08-03T00:08:09;1.88;;;1.25;;
38725;SDS011;24474;48.906;8.808;2022-08-03T00:10:35;2.47;;;1.50;;
38725;SDS011;24474;48.906;8.808;2022-08-03T00:13:02;3.63;;;1.75;;
38725;SDS011;24474;48.906;8.808;2022-08-03T00:15:28;2.38;;;1.27;;
38725;SDS011;24474;48.906;8.808;2022-08-03T00:17:53;2.88;;;1.70;;
38725;SDS011;24474;48.906;8.808;2022-08-03T00:23:42;2.75;;;1.45;;
38725;SDS011;24474;48.906;8.808;2022-08-03T00:26:10;4.03;;;1.52;;
38725;SDS011;24474;48.906;8.808;2022-08-03T00:28:35;2.33;;;1.60;;
38725;SDS011;24474;48.906;8.808;2022-08-03T00:31:01;2.05;;;1.40;;
38725;SDS011;24474;48.906;8.808;2022-08-03T00:33:27;2.42;;;1.65;;
38725;SDS011;24474;48.906;8.808;2022-08-03T00:35:54;3.30;;;1.55;;
38725;SDS011;24474;48.906;8.808;2022-08-03T00:38:20;3.13;;;1.45;;
38725;SDS011;24474;48.906;8.808;2022-08-03T00:40:47;2.97;;;1.48;;
38725;SDS011;24474;48.906;8.808;2022-08-03T00:43:13;2.08;;;1.40;;
38725;SDS011;24474;48.906;8.808;2022-08-03T00:45:40;2.35;;;1.58;;
38725;SDS011;24474;48.906;8.808;2022-08-03T00:48:09;3.38;;;1.63;;
38725;SDS011;24474;48.906;8.808;2022-08-03T00:50:39;3.70;;;1.50;;
38725;SDS011;24474;48.906;8.808;2022-08-03T00:53:07;4.03;;;1.70;;
38725;SDS011;24474;48.906;8.808;2022-08-03T00:55:36;4.45;;;1.52;;
38725;SDS011;24474;48.906;8.808;2022-08-03T00:58:02;3.25;;;1.48;;
38725;SDS011;24474;48.906;8.808;2022-08-03T01:00:33;2.65;;;1.70;;
38725;SDS011;24474;48.906;8.808;2022-08-03T01:03:06;1.90;;;1.50;;
38725;SDS011;24474;48.906;8.808;2022-08-03T01:05:42;2.42;;;1.50;;
38725;SDS011;24474;48.906;8.808;2022-08-03T01:10:55;3.65;;;1.67;;
38725;SDS011;24474;48.906;8.808;2022-08-03T01:19:18;2.40;;;1.70;;
38725;SDS011;24474;48.906;8.808;2022-08-03T01:22:07;1.90;;;1.65;;
38725;SDS011;24474;48.906;8.808;2022-08-03T01:30:12;3.05;;;1.52;;
38725;SDS011;24474;48.906;8.808;2022-08-03T01:32:51;3.22;;;1.70;;
38725;SDS011;24474;48.906;8.808;2022-08-03T01:35:27;4.20;;;1.60;;
38725;SDS011;24474;48.906;8.808;2022-08-03T01:38:03;2.35;;;1.65;;
38725;SDS011;24474;48.906;8.808;2022-08-03T01:40:34;3.85;;;1.65;;
38725;SDS011;24474;48.906;8.808;2022-08-03T01:43:03;2.95;;;1.55;;
38725;SDS011;24474;48.906;8.808;2022-08-03T01:45:32;2.70;;;1.60;;
38725;SDS011;24474;48.906;8.808;2022-08-03T01:48:00;1.73;;;1.38;;
38725;SDS011;24474;48.906;8.808;2022-08-03T01:50:27;2.10;;;1.48;;
38725;SDS011;24474;48.906;8.808;2022-08-03T01:52:55;3.15;;;1.63;;
38725;SDS011;24474;48.906;8.808;2022-08-03T01:55:21;2.97;;;1.77;;
38725;SDS011;24474;48.906;8.808;2022-08-03T01:57:52;2.50;;;1.50;;
38725;SDS011;24474;48.906;8.808;2022-08-03T02:00:20;3.08;;;1.65;;
38725;SDS011;24474;48.906;8.808;2022-08-03T02:02:48;3.53;;;1.50;;
38725;SDS011;24474;48.906;8.808;2022-08-03T02:05:34;1.88;;;1.70;;
38725;SDS011;24474;48.906;8.808;2022-08-03T02:08:04;2.60;;;1.70;;
38725;SDS011;24474;48.906;8.808;2022-08-03T02:10:34;4.25;;;1.50;;
38725;SDS011;24474;48.906;8.808;2022-08-03T02:13:02;2.35;;;1.75;;
38725;SDS011;24474;48.906;8.808;2022-08-03T02:15:29;3.60;;;1.60;;
38725;SDS011;24474;48.906;8.808;2022-08-03T02:17:59;3.47;;;1.50;;
38725;SDS011;24474;48.906;8.808;2022-08-03T02:20:27;2.38;;;1.67;;
38725;SDS011;24474;48.906;8.808;2022-08-03T02:22:53;2.25;;;1.50;;
38725;SDS011;24474;48.906;8.808;2022-08-03T02:25:19;4.30;;;1.98;;
38725;SDS011;24474;48.906;8.808;2022-08-03T02:27:54;1.60;;;1.50;;
38725;SDS011;24474;48.906;8.808;2022-08-03T02:30:24;2.30;;;1.67;;
38725;SDS011;24474;48.906;8.808;2022-08-03T02:32:57;2.65;;;1.90;;
38725;SDS011;24474;48.906;8.808;2022-08-03T02:35:26;1.55;;;1.45;;
38725;SDS011;24474;48.906;8.808;2022-08-03T02:37:55;2.90;;;1.80;;
38725;SDS011;24474;48.906;8.808;2022-08-03T02:40:24;1.85;;;1.60;;
38725;SDS011;24474;48.906;8.808;2022-08-03T02:42:54;2.05;;;1.60;;
38725;SDS011;24474;48.906;8.808;2022-08-03T02:45:30;2.17;;;1.50;;
38725;SDS011;24474;48.906;8.808;2022-08-03T02:48:02;3.00;;;1.98;;
38725;SDS011;24474;48.906;8.808;2022-08-03T02:50:29;1.85;;;1.60;;
38725;SDS011;24474;48.906;8.808;2022-08-03T02:52:57;3.22;;;1.63;;
38725;SDS011;24474;48.906;8.808;2022-08-03T02:55:23;2.20;;;1.45;;
38725;SDS011;24474;48.906;8.808;2022-08-03T02:57:51;1.98;;;1.48;;
38725;SDS011;24474;48.906;8.808;2022-08-03T03:00:18;2.95;;;1.83;;
38725;SDS011;24474;48.906;8.808;2022-08-03T03:02:44;3.20;;;1.80;;
38725;SDS011;24474;48.906;8.808;2022-08-03T03:05:11;2.20;;;1.60;;
38725;SDS011;24474;48.906;8.808;2022-08-03T03:07:38;2.53;;;1.80;;
38725;SDS011;24474;48.906;8.808;2022-08-03T03:10:06;3.17;;;1.75;;
38725;SDS011;24474;48.906;8.808;2022-08-03T03:12:32;2.13;;;1.73;;
38725;SDS011;24474;48.906;8.808;2022-08-03T03:15:01;2.78;;;1.90;;
38725;SDS011;24474;48.906;8.808;2022-08-03T03:17:27;3.83;;;1.88;;
38725;SDS011;24474;48.906;8.808;2022-08-03T03:19:55;4.03;;;1.90;;
38725;SDS011;24474;48.906;8.808;2022-08-03T03:22:22;3.70;;;2.10;;
38725;SDS011;24474;48.906;8.808;2022-08-03T03:24:48;2.58;;;1.52;;
38725;SDS011;24474;48.906;8.808;2022-08-03T03:27:15;4.68;;;1.90;;
38725;SDS011;24474;48.906;8.808;2022-08-03T03:29:42;2.55;;;1.98;;
38725;SDS011;24474;48.906;8.808;2022-08-03T03:32:08;2.42;;;1.80;;
38725;SDS011;24474;48.906;8.808;2022-08-03T03:34:34;3.22;;;1.60;;
38725;SDS011;24474;48.906;8.808;2022-08-03T03:37:01;3.88;;;2.03;;
38725;SDS011;24474;48.906;8.808;2022-08-03T03:39:27;4.38;;;2.00;;
38725;SDS011;24474;48.906;8.808;2022-08-03T03:41:53;4.03;;;2.20;;
38725;SDS011;24474;48.906;8.808;2022-08-03T03:44:19;5.45;;;2.17;;
38725;SDS011;24474;48.906;8.808;2022-08-03T03:46:46;3.97;;;2.03;;
38725;SDS011;24474;48.906;8.808;2022-08-03T03:49:12;3.08;;;2.10;;
38725;SDS011;24474;48.906;8.808;2022-08-03T03:51:38;2.85;;;2.05;;
38725;SDS011;24474;48.906;8.808;2022-08-03T03:54:03;3.08;;;1.70;;
38725;SDS011;24474;48.906;8.808;2022-08-03T03:56:32;2.88;;;1.80;;
38725;SDS011;24474;48.906;8.808;2022-08-03T03:58:58;2.83;;;1.70;;
38725;SDS011;24474;48.906;8.808;2022-08-03T04:01:24;3.95;;;2.00;;
38725;SDS011;24474;48.906;8.808;2022-08-03T04:03:49;2.35;;;2.05;;
38725;SDS011;24474;48.906;8.808;2022-08-03T04:06:16;3.58;;;1.85;;
38725;SDS011;24474;48.906;8.808;2022-08-03T04:09:01;4.28;;;2.10;;
38725;SDS011;24474;48.906;8.808;2022-08-03T04:11:48;3.80;;;2.10;;
38725;SDS011;24474;48.906;8.808;2022-08-03T04:14:32;3.38;;;2.25;;
38725;SDS011;24474;48.906;8.808;2022-08-03T04:17:03;5.25;;;2.15;;
38725;SDS011;24474;48.906;8.808;2022-08-03T04:22:06;3.55;;;2.15;;
38725;SDS011;24474;48.906;8.808;2022-08-03T04:25:08;4.40;;;2.22;;
38725;SDS011;24474;48.906;8.808;2022-08-03T04:27:30;4.07;;;2.08;;
38725;SDS011;24474;48.906;8.808;2022-08-03T04:30:02;2.00;;;1.75;;
38725;SDS011;24474;48.906;8.808;2022-08-03T04:32:29;3.70;;;1.98;;
38725;SDS011;24474;48.906;8.808;2022-08-03T04:34:57;3.45;;;2.05;;
38725;SDS011;24474;48.906;8.808;2022-08-03T04:37:25;3.83;;;2.10;;
38725;SDS011;24474;48.906;8.808;2022-08-03T04:39:59;5.38;;;2.10;;
38725;SDS011;24474;48.906;8.808;2022-08-03T04:42:29;4.15;;;2.00;;
38725;SDS011;24474;48.906;8.808;2022-08-03T04:44:57;2.40;;;1.80;;
38725;SDS011;24474;48.906;8.808;2022-08-03T04:47:23;5.45;;;1.92;;
38725;SDS011;24474;48.906;8.808;2022-08-03T04:49:50;2.67;;;2.00;;
38725;SDS011;24474;48.906;8.808;2022-08-03T04:52:18;3.88;;;1.77;;
38725;SDS011;24474;48.906;8.808;2022-08-03T04:54:44;3.35;;;1.85;;
38725;SDS011;24474;48.906;8.808;2022-08-03T04:57:10;3.88;;;1.83;;
38725;SDS011;24474;48.906;8.808;2022-08-03T04:59:36;3.33;;;1.70;;
38725;SDS011;24474;48.906;8.808;2022-08-03T05:02:02;5.43;;;2.00;;
38725;SDS011;24474;48.906;8.808;2022-08-03T05:04:29;3.85;;;1.92;;
38725;SDS011;24474;48.906;8.808;2022-08-03T05:06:54;3.17;;;2.13;;
38725;SDS011;24474;48.906;8.808;2022-08-03T05:09:20;3.15;;;2.00;;
38725;SDS011;24474;48.906;8.808;2022-08-03T05:11:46;3.20;;;1.90;;
38725;SDS011;24474;48.906;8.808;2022-08-03T05:14:12;3.00;;;1.90;;
38725;SDS011;24474;48.906;8.808;2022-08-03T05:16:39;3.05;;;1.90;;
38725;SDS011;24474;48.906;8.808;2022-08-03T05:19:07;3.75;;;2.00;;
38725;SDS011;24474;48.906;8.808;2022-08-03T05:21:33;5.72;;;2.33;;
38725;SDS011;24474;48.906;8.808;2022-08-03T05:24:01;3.67;;;2.15;;
38725;SDS011;24474;48.906;8.808;2022-08-03T05:26:26;5.32;;;2.13;;
38725;SDS011;24474;48.906;8.808;2022-08-03T05:28:52;5.82;;;2.13;;
38725;SDS011;24474;48.906;8.808;2022-08-03T05:31:18;4.25;;;2.00;;
38725;SDS011;24474;48.906;8.808;2022-08-03T05:33:45;4.25;;;1.98;;
38725;SDS011;24474;48.906;8.808;2022-08-03T05:36:14;4.50;;;2.40;;
38725;SDS011;24474;48.906;8.808;2022-08-03T05:38:39;4.45;;;2.03;;
38725;SDS011;24474;48.906;8.808;2022-08-03T05:41:05;2.30;;;1.65;;
38725;SDS011;24474;48.906;8.808;2022-08-03T05:43:31;4.43;;;1.90;;
38725;SDS011;24474;48.906;8.808;2022-08-03T05:45:57;2.70;;;1.75;;
38725;SDS011;24474;48.906;8.808;2022-08-03T05:48:24;3.60;;;1.70;;
38725;SDS011;24474;48.906;8.808;2022-08-03T05:50:50;3.30;;;1.70;;
38725;SDS011;24474;48.906;8.808;2022-08-03T05:53:16;2.97;;;1.63;;
38725;SDS011;24474;48.906;8.808;2022-08-03T05:55:42;4.28;;;1.73;;
38725;SDS011;24474;48.906;8.808;2022-08-03T05:58:08;2.80;;;1.80;;
38725;SDS011;24474;48.906;8.808;2022-08-03T06:00:34;5.07;;;1.90;;
38725;SDS011;24474;48.906;8.808;2022-08-03T06:03:01;3.45;;;1.63;;
38725;SDS011;24474;48.906;8.808;2022-08-03T06:05:28;7.70;;;2.33;;
38725;SDS011;24474;48.906;8.808;2022-08-03T06:07:55;1.95;;;1.60;;
38725;SDS011;24474;48.906;8.808;2022-08-03T06:10:20;4.40;;;2.00;;
38725;SDS011;24474;48.906;8.808;2022-08-03T06:12:46;3.97;;;2.00;;
38725;SDS011;24474;48.906;8.808;2022-08-03T06:15:13;3.50;;;2.08;;
38725;SDS011;24474;48.906;8.808;2022-08-03T06:17:48;3.88;;;1.90;;
38725;SDS011;24474;48.906;8.808;2022-08-03T06:20:17;2.67;;;2.10;;
38725;SDS011;24474;48.906;8.808;2022-08-03T06:22:44;4.97;;;1.90;;
38725;SDS011;24474;48.906;8.808;2022-08-03T06:25:10;4.68;;;1.98;;
38725;SDS011;24474;48.906;8.808;2022-08-03T06:27:36;3.95;;;1.90;;
38725;SDS011;24474;48.906;8.808;2022-08-03T06:30:05;4.20;;;1.70;;
38725;SDS011;24474;48.906;8.808;2022-08-03T06:32:36;2.80;;;1.67;;
38725;SDS011;24474;48.906;8.808;2022-08-03T06:35:03;4.55;;;1.80;;
38725;SDS011;24474;48.906;8.808;2022-08-03T06:37:30;2.83;;;1.70;;
38725;SDS011;24474;48.906;8.808;2022-08-03T06:39:56;3.08;;;1.80;;
38725;SDS011;24474;48.906;8.808;2022-08-03T06:42:23;3.25;;;1.80;;
38725;SDS011;24474;48.906;8.808;2022-08-03T06:44:48;3.08;;;2.00;;
38725;SDS011;24474;48.906;8.808;2022-08-03T06:47:15;4.35;;;1.75;;
38725;SDS011;24474;48.906;8.808;2022-08-03T06:49:41;2.28;;;1.55;;
38725;SDS011;24474;48.906;8.808;2022-08-03T06:52:06;2.72;;;1.55;;
38725;SDS011;24474;48.906;8.808;2022-08-03T06:54:32;8.25;;;1.83;;
38725;SDS011;24474;48.906;8.808;2022-08-03T06:56:58;5.45;;;1.60;;
38725;SDS011;24474;48.906;8.808;2022-08-03T06:59:24;3.28;;;1.75;;
38725;SDS011;24474;48.906;8.808;2022-08-03T07:01:49;5.05;;;1.70;;
38725;SDS011;24474;48.906;8.808;2022-08-03T07:04:15;3.95;;;1.50;;
38725;SDS011;24474;48.906;8.808;2022-08-03T07:06:41;4.03;;;2.00;;
38725;SDS011;24474;48.906;8.808;2022-08-03T07:09:06;3.88;;;2.00;;
38725;SDS011;24474;48.906;8.808;2022-08-03T07:11:33;4.60;;;1.60;;
38725;SDS011;24474;48.906;8.808;2022-08-03T07:13:59;2.63;;;1.50;;
38725;SDS011;24474;48.906;8.808;2022-08-03T07:16:26;4.57;;;1.30;;
38725;SDS011;24474;48.906;8.808;2022-08-03T07:18:51;3.22;;;1.38;;
38725;SDS011;24474;48.906;8.808;2022-08-03T07:21:18;1.95;;;1.23;;
38725;SDS011;24474;48.906;8.808;2022-08-03T07:23:43;3.13;;;1.40;;
38725;SDS011;24474;48.906;8.808;2022-08-03T07:26:09;3.15;;;1.27;;
38725;SDS011;24474;48.906;8.808;2022-08-03T07:28:35;2.75;;;1.40;;
38725;SDS011;24474;48.906;8.808;2022-08-03T07:31:02;3.83;;;1.50;;
38725;SDS011;24474;48.906;8.808;2022-08-03T07:33:28;3.42;;;1.38;;
38725;SDS011;24474;48.906;8.808;2022-08-03T07:35:54;2.53;;;1.05;;
38725;SDS011;24474;48.906;8.808;2022-08-03T07:38:19;1.98;;;1.05;;
38725;SDS011;24474;48.906;8.808;2022-08-03T07:40:45;2.97;;;1.30;;
38725;SDS011;24474;48.906;8.808;2022-08-03T07:43:11;2.53;;;1.60;;
38725;SDS011;24474;48.906;8.808;2022-08-03T07:45:37;3.38;;;1.20;;
38725;SDS011;24474;48.906;8.808;2022-08-03T07:48:03;5.07;;;1.15;;
38725;SDS011;24474;48.906;8.808;2022-08-03T07:50:29;3.08;;;1.48;;
38725;SDS011;24474;48.906;8.808;2022-08-03T07:52:55;2.28;;;1.10;;
38725;SDS011;24474;48.906;8.808;2022-08-03T07:55:23;4.10;;;1.08;;
38725;SDS011;24474;48.906;8.808;2022-08-03T07:58:06;4.10;;;1.45;;
38725;SDS011;24474;48.906;8.808;2022-08-03T08:00:35;4.53;;;1.65;;
38725;SDS011;24474;48.906;8.808;2022-08-03T08:03:03;1.55;;;1.20;;
38725;SDS011;24474;48.906;8.808;2022-08-03T08:05:31;3.40;;;1.30;;
38725;SDS011;24474;48.906;8.808;2022-08-03T08:07:56;3.50;;;1.30;;
38725;SDS011;24474;48.906;8.808;2022-08-03T08:10:22;2.83;;;1.48;;
38725;SDS011;24474;48.906;8.808;2022-08-03T08:12:48;2.90;;;1.50;;
38725;SDS011;24474;48.906;8.808;2022-08-03T08:15:15;3.03;;;1.35;;
38725;SDS011;24474;48.906;8.808;2022-08-03T08:17:43;2.88;;;1.30;;
38725;SDS011;24474;48.906;8.808;2022-08-03T08:20:17;2.88;;;1.30;;
38725;SDS011;24474;48.906;8.808;2022-08-03T08:23:04;3.03;;;1.05;;
38725;SDS011;24474;48.906;8.808;2022-08-03T08:25:32;1.40;;;0.90;;
38725;SDS011;24474;48.906;8.808;2022-08-03T08:27:58;2.13;;;0.90;;
38725;SDS011;24474;48.906;8.808;2022-08-03T08:30:27;2.35;;;0.98;;
38725;SDS011;24474;48.906;8.808;2022-08-03T08:32:53;3.50;;;1.15;;
38725;SDS011;24474;48.906;8.808;2022-08-03T08:35:18;3.30;;;0.98;;
38725;SDS011;24474;48.906;8.808;2022-08-03T08:37:46;4.97;;;1.05;;
38725;SDS011;24474;48.906;8.808;2022-08-03T08:40:12;1.75;;;1.15;;
38725;SDS011;24474;48.906;8.808;2022-08-03T08:42:38;4.72;;;1.20;;
38725;SDS011;24474;48.906;8.808;2022-08-03T08:45:05;2.95;;;1.08;;
38725;SDS011;24474;48.906;8.808;2022-08-03T08:47:33;2.30;;;1.33;;
38725;SDS011;24474;48.906;8.808;2022-08-03T08:50:02;1.90;;;1.20;;
38725;SDS011;24474;48.906;8.808;2022-08-03T08:52:29;3.13;;;1.20;;
38725;SDS011;24474;48.906;8.808;2022-08-03T08:54:58;4.45;;;1.30;;
38725;SDS011;24474;48.906;8.808;2022-08-03T08:57:30;2.92;;;1.20;;
38725;SDS011;24474;48.906;8.808;2022-08-03T09:00:00;2.53;;;1.00;;
38725;SDS011;24474;48.906;8.808;2022-08-03T09:02:29;2.83;;;1.23;;
38725;SDS011;24474;48.906;8.808;2022-08-03T09:04:55;4.50;;;1.05;;
38725;SDS011;24474;48.906;8.808;2022-08-03T09:07:22;5.07;;;1.20;;
38725;SDS011;24474;48.906;8.808;2022-08-03T09:09:47;3.03;;;1.23;;
38725;SDS011;24474;48.906;8.808;2022-08-03T09:12:13;3.38;;;1.23;;
38725;SDS011;24474;48.906;8.808;2022-08-03T09:14:39;1.75;;;1.00;;
38725;SDS011;24474;48.906;8.808;2022-08-03T09:17:05;4.90;;;1.00;;
38725;SDS011;24474;48.906;8.808;2022-08-03T09:19:34;3.92;;;1.20;;
38725;SDS011;24474;48.906;8.808;2022-08-03T09:22:17;4.05;;;1.17;;
38725;SDS011;24474;48.906;8.808;2022-08-03T09:24:59;1.73;;;1.00;;
38725;SDS011;24474;48.906;8.808;2022-08-03T09:27:28;2.58;;;1.15;;
38725;SDS011;24474;48.906;8.808;2022-08-03T09:30:12;4.15;;;1.00;;
38725;SDS011;24474;48.906;8.808;2022-08-03T09:32:39;2.33;;;1.13;;
38725;SDS011;24474;48.906;8.808;2022-08-03T09:35:06;2.85;;;1.30;;
38725;SDS011;24474;48.906;8.808;2022-08-03T09:37:32;3.10;;;0.95;;
38725;SDS011;24474;48.906;8.808;2022-08-03T09:39:58;2.35;;;1.13;;
38725;SDS011;24474;48.906;8.808;2022-08-03T09:42:27;2.92;;;0.98;;
38725;SDS011;24474;48.906;8.808;2022-08-03T09:44:54;1.88;;;1.25;;
38725;SDS011;24474;48.906;8.808;2022-08-03T09:47:32;2.33;;;1.20;;
38725;SDS011;24474;48.906;8.808;2022-08-03T09:50:06;2.85;;;1.10;;
38725;SDS011;24474;48.906;8.808;2022-08-03T09:52:34;2.28;;;1.27;;
38725;SDS011;24474;48.906;8.808;2022-08-03T09:55:12;2.92;;;1.70;;
38725;SDS011;24474;48.906;8.808;2022-08-03T09:57:39;2.60;;;1.70;;
38725;SDS011;24474;48.906;8.808;2022-08-03T10:00:10;1.73;;;1.30;;
38725;SDS011;24474;48.906;8.808;2022-08-03T10:02:42;4.07;;;1.23;;
38725;SDS011;24474;48.906;8.808;2022-08-03T10:07:42;3.95;;;1.60;;
38725;SDS011;24474;48.906;8.808;2022-08-03T10:10:11;1.73;;;1.27;;
38725;SDS011;24474;48.906;8.808;2022-08-03T10:12:38;3.15;;;1.30;;
38725;SDS011;24474;48.906;8.808;2022-08-03T10:15:05;2.35;;;1.38;;
38725;SDS011;24474;48.906;8.808;2022-08-03T10:17:34;2.03;;;1.10;;
38725;SDS011;24474;48.906;8.808;2022-08-03T10:20:00;1.73;;;1.25;;
38725;SDS011;24474;48.906;8.808;2022-08-03T10:22:31;1.55;;;0.90;;
38725;SDS011;24474;48.906;8.808;2022-08-03T10:25:10;4.07;;;1.40;;
38725;SDS011;24474;48.906;8.808;2022-08-03T10:27:37;4.07;;;1.10;;
38725;SDS011;24474;48.906;8.808;2022-08-03T10:30:09;2.85;;;1.40;;
38725;SDS011;24474;48.906;8.808;2022-08-03T10:35:33;2.22;;;1.50;;
38725;SDS011;24474;48.906;8.808;2022-08-03T10:38:07;1.30;;;1.05;;
38725;SDS011;24474;48.906;8.808;2022-08-03T10:40:37;1.35;;;1.02;;
38725;SDS011;24474;48.906;8.808;2022-08-03T10:43:09;1.65;;;0.95;;
38725;SDS011;24474;48.906;8.808;2022-08-03T10:45:42;3.10;;;1.00;;
38725;SDS011;24474;48.906;8.808;2022-08-03T10:48:10;4.10;;;1.20;;
38725;SDS011;24474;48.906;8.808;2022-08-03T10:50:36;2.30;;;1.10;;
38725;SDS011;24474;48.906;8.808;2022-08-03T10:53:04;5.57;;;1.20;;
38725;SDS011;24474;48.906;8.808;2022-08-03T11:01:05;2.58;;;0.98;;
38725;SDS011;24474;48.906;8.808;2022-08-03T11:04:20;0.95;;;0.80;;
38725;SDS011;24474;48.906;8.808;2022-08-03T11:06:24;1.27;;;0.88;;
38725;SDS011;24474;48.906;8.808;2022-08-03T11:11:36;2.28;;;1.05;;
38725;SDS011;24474;48.906;8.808;2022-08-03T11:14:13;11.05;;;2.40;;
38725;SDS011;24474;48.906;8.808;2022-08-03T11:17:05;1.75;;;1.10;;
38725;SDS011;24474;48.906;8.808;2022-08-03T11:19:42;1.52;;;0.90;;
38725;SDS011;24474;48.906;8.808;2022-08-03T11:22:09;2.75;;;1.05;;
38725;SDS011;24474;48.906;8.808;2022-08-03T11:27:17;1.58;;;1.00;;
38725;SDS011;24474;48.906;8.808;2022-08-03T11:46:03;2.50;;;0.90;;
38725;SDS011;24474;48.906;8.808;2022-08-03T11:48:42;1.25;;;0.80;;
38725;SDS011;24474;48.906;8.808;2022-08-03T11:51:28;1.75;;;1.00;;
38725;SDS011;24474;48.906;8.808;2022-08-03T11:53:57;1.52;;;0.93;;
38725;SDS011;24474;48.906;8.808;2022-08-03T11:56:51;1.38;;;0.90;;
38725;SDS011;24474;48.906;8.808;2022-08-03T11:59:16;1.27;;;0.80;;
38725;SDS011;24474;48.906;8.808;2022-08-03T12:01:42;4.93;;;1.10;;
38725;SDS011;24474;48.906;8.808;2022-08-03T12:04:09;1.50;;;0.90;;
38725;SDS011;24474;48.906;8.808;2022-08-03T12:06:37;1.40;;;0.70;;
38725;SDS011;24474;48.906;8.808;2022-08-03T12:09:20;1.77;;;1.05;;
38725;SDS011;24474;48.906;8.808;2022-08-03T12:11:49;2.15;;;1.00;;
38725;SDS011;24474;48.906;8.808;2022-08-03T12:14:17;2.95;;;0.93;;
38725;SDS011;24474;48.906;8.808;2022-08-03T12:16:47;3.10;;;1.08;;
38725;SDS011;24474;48.906;8.808;2022-08-03T12:19:13;2.30;;;0.90;;
38725;SDS011;24474;48.906;8.808;2022-08-03T12:21:48;1.67;;;0.80;;
38725;SDS011;24474;48.906;8.808;2022-08-03T12:24:16;1.65;;;1.15;;
38725;SDS011;24474;48.906;8.808;2022-08-03T12:26:47;1.42;;;1.10;;
38725;SDS011;24474;48.906;8.808;2022-08-03T12:29:19;2.70;;;0.98;;
38725;SDS011;24474;48.906;8.808;2022-08-03T12:31:50;2.53;;;0.93;;
38725;SDS011;24474;48.906;8.808;2022-08-03T12:34:21;3.33;;;1.23;;
38725;SDS011;24474;48.906;8.808;2022-08-03T12:37:03;1.85;;;1.05;;
38725;SDS011;24474;48.906;8.808;2022-08-03T12:39:31;3.60;;;1.10;;
38725;SDS011;24474;48.906;8.808;2022-08-03T12:41:57;5.65;;;1.20;;
38725;SDS011;24474;48.906;8.808;2022-08-03T12:44:32;3.42;;;1.42;;
38725;SDS011;24474;48.906;8.808;2022-08-03T12:47:00;2.30;;;0.85;;
38725;SDS011;24474;48.906;8.808;2022-08-03T12:49:43;3.28;;;1.30;;
38725;SDS011;24474;48.906;8.808;2022-08-03T12:52:16;2.25;;;1.05;;
38725;SDS011;24474;48.906;8.808;2022-08-03T12:54:52;5.38;;;1.27;;
38725;SDS011;24474;48.906;8.808;2022-08-03T12:57:47;5.97;;;1.10;;
38725;SDS011;24474;48.906;8.808;2022-08-03T13:00:15;1.90;;;0.98;;
38725;SDS011;24474;48.906;8.808;2022-08-03T13:02:53;1.92;;;0.90;;
38725;SDS011;24474;48.906;8.808;2022-08-03T13:05:42;2.85;;;0.98;;
38725;SDS011;24474;48.906;8.808;2022-08-03T13:08:18;3.78;;;1.10;;
38725;SDS011;24474;48.906;8.808;2022-08-03T13:10:52;2.08;;;1.05;;
38725;SDS011;24474;48.906;8.808;2022-08-03T13:13:39;1.50;;;1.00;;
38725;SDS011;24474;48.906;8.808;2022-08-03T13:16:09;1.67;;;0.93;;
38725;SDS011;24474;48.906;8.808;2022-08-03T13:18:36;4.80;;;1.00;;
38725;SDS011;24474;48.906;8.808;2022-08-03T13:21:03;2.28;;;1.00;;
38725;SDS011;24474;48.906;8.808;2022-08-03T13:23:28;2.55;;;0.98;;
38725;SDS011;24474;48.906;8.808;2022-08-03T13:25:56;2.22;;;1.08;;
38725;SDS011;24474;48.906;8.808;2022-08-03T13:28:23;1.52;;;1.00;;
38725;SDS011;24474;48.906;8.808;2022-08-03T13:30:49;1.50;;;1.00;;
38725;SDS011;24474;48.906;8.808;2022-08-03T13:33:16;2.78;;;0.82;;
38725;SDS011;24474;48.906;8.808;2022-08-03T13:35:48;3.85;;;0.93;;
38725;SDS011;24474;48.906;8.808;2022-08-03T13:38:13;3.67;;;0.95;;
38725;SDS011;24474;48.906;8.808;2022-08-03T13:40:41;1.90;;;0.82;;
38725;SDS011;24474;48.906;8.808;2022-08-03T13:43:10;2.20;;;1.20;;
38725;SDS011;24474;48.906;8.808;2022-08-03T13:45:38;2.37;;;1.00;;
38725;SDS011;24474;48.906;8.808;2022-08-03T13:48:06;2.20;;;1.08;;
38725;SDS011;24474;48.906;8.808;2022-08-03T13:50:32;2.15;;;1.00;;
38725;SDS011;24474;48.906;8.808;2022-08-03T13:52:58;1.10;;;0.70;;
38725;SDS011;24474;48.906;8.808;2022-08-03T13:55:24;1.92;;;1.02;;
38725;SDS011;24474;48.906;8.808;2022-08-03T13:57:51;1.35;;;1.00;;
38725;SDS011;24474;48.906;8.808;2022-08-03T14:00:18;2.25;;;1.10;;
38725;SDS011;24474;48.906;8.808;2022-08-03T14:02:50;2.05;;;0.90;;
38725;SDS011;24474;48.906;8.808;2022-08-03T14:05:20;1.55;;;0.85;;
38725;SDS011;24474;48.906;8.808;2022-08-03T14:07:51;2.60;;;1.00;;
38725;SDS011;24474;48.906;8.808;2022-08-03T14:10:23;4.18;;;1.00;;
38725;SDS011;24474;48.906;8.808;2022-08-03T14:12:51;2.20;;;0.88;;
38725;SDS011;24474;48.906;8.808;2022-08-03T14:15:23;1.20;;;0.93;;
38725;SDS011;24474;48.906;8.808;2022-08-03T14:17:50;3.00;;;1.10;;
38725;SDS011;24474;48.906;8.808;2022-08-03T14:20:16;4.25;;;1.10;;
38725;SDS011;24474;48.906;8.808;2022-08-03T14:22:44;3.47;;;0.95;;
38725;SDS011;24474;48.906;8.808;2022-08-03T14:25:11;3.70;;;1.30;;
38725;SDS011;24474;48.906;8.808;2022-08-03T14:27:38;3.67;;;1.17;;
38725;SDS011;24474;48.906;8.808;2022-08-03T14:30:07;2.58;;;1.10;;
38725;SDS011;24474;48.906;8.808;2022-08-03T14:32:42;2.65;;;1.10;;
38725;SDS011;24474;48.906;8.808;2022-08-03T14:35:13;3.83;;;1.30;;
38725;SDS011;24474;48.906;8.808;2022-08-03T14:37:42;6.20;;;1.30;;
38725;SDS011;24474;48.906;8.808;2022-08-03T14:40:10;1.40;;;1.10;;
38725;SDS011;24474;48.906;8.808;2022-08-03T14:42:38;4.82;;;1.20;;
38725;SDS011;24474;48.906;8.808;2022-08-03T14:45:04;2.67;;;1.10;;
38725;SDS011;24474;48.906;8.808;2022-08-03T14:47:31;2.22;;;1.27;;
38725;SDS011;24474;48.906;8.808;2022-08-03T14:50:00;4.80;;;0.95;;
38725;SDS011;24474;48.906;8.808;2022-08-03T14:52:30;3.70;;;1.20;;
38725;SDS011;24474;48.906;8.808;2022-08-03T14:54:59;1.73;;;1.00;;
38725;SDS011;24474;48.906;8.808;2022-08-03T14:57:26;5.82;;;1.00;;
38725;SDS011;24474;48.906;8.808;2022-08-03T14:59:52;2.58;;;1.10;;
38725;SDS011;24474;48.906;8.808;2022-08-03T15:02:18;4.15;;;1.30;;
38725;SDS011;24474;48.906;8.808;2022-08-03T15:04:46;1.30;;;1.02;;
38725;SDS011;24474;48.906;8.808;2022-08-03T15:07:12;4.93;;;1.40;;
38725;SDS011;24474;48.906;8.808;2022-08-03T15:09:45;2.28;;;1.08;;
38725;SDS011;24474;48.906;8.808;2022-08-03T15:12:15;1.52;;;1.00;;
38725;SDS011;24474;48.906;8.808;2022-08-03T15:14:43;3.90;;;0.98;;
38725;SDS011;24474;48.906;8.808;2022-08-03T15:17:09;2.67;;;1.10;;
38725;SDS011;24474;48.906;8.808;2022-08-03T15:19:36;2.25;;;1.20;;
38725;SDS011;24474;48.906;8.808;2022-08-03T15:22:04;3.33;;;1.30;;
38725;SDS011;24474;48.906;8.808;2022-08-03T15:24:37;1.95;;;0.95;;
38725;SDS011;24474;48.906;8.808;2022-08-03T15:27:05;3.72;;;1.02;;
38725;SDS011;24474;48.906;8.808;2022-08-03T15:29:33;5.38;;;1.05;;
38725;SDS011;24474;48.906;8.808;2022-08-03T15:31:59;1.27;;;1.08;;
38725;SDS011;24474;48.906;8.808;2022-08-03T15:34:28;2.63;;;1.00;;
38725;SDS011;24474;48.906;8.808;2022-08-03T15:36:54;2.30;;;1.15;;
38725;SDS011;24474;48.906;8.808;2022-08-03T15:39:21;1.20;;;1.00;;
38725;SDS011;24474;48.906;8.808;2022-08-03T15:41:52;4.68;;;1.15;;
38725;SDS011;24474;48.906;8.808;2022-08-03T15:44:22;1.58;;;1.02;;
38725;SDS011;24474;48.906;8.808;2022-08-03T15:46:49;3.50;;;1.00;;
38725;SDS011;24474;48.906;8.808;2022-08-03T15:49:18;5.50;;;1.15;;
38725;SDS011;24474;48.906;8.808;2022-08-03T15:51:46;2.10;;;1.02;;